Time;durP1;ratioP1;P1;durP2;ratioP2;P2;SDS_P1;SDS_P2;PMS_P1;PMS_P2;Temp;Humidity;BMP_temperature;BMP_pressure;BME280_temperature;BME280_humidity;BME280_pressure;Samples;Min_cycle;Max_cycle;Signal;HPM_P1;HPM_P2
2021/05/03 00:02:24;;;;;;;5.57;2.80;;;2.50;90.60;;;;;;4983789;28;20482;-70
2021/05/03 00:04:49;;;;;;;5.68;3.40;;;2.50;90.70;;;;;;5037548;28;20027;-70
2021/05/03 00:07:15;;;;;;;7.43;2.90;;;2.50;90.70;;;;;;5045944;28;20073;-70
2021/05/03 00:09:41;;;;;;;5.38;3.03;;;2.50;90.90;;;;;;5009077;28;20030;-70
2021/05/03 00:12:07;;;;;;;7.82;3.20;;;2.50;90.90;;;;;;5003150;28;20183;-70
2021/05/03 00:14:33;;;;;;;5.88;2.90;;;2.50;90.90;;;;;;5012104;28;20127;-70
2021/05/03 00:16:59;;;;;;;8.05;2.60;;;2.50;90.90;;;;;;5032681;28;20066;-70
2021/05/03 00:19:24;;;;;;;5.60;2.42;;;2.50;91.00;;;;;;5047910;28;20116;-70
2021/05/03 00:21:50;;;;;;;5.97;2.78;;;2.50;91.00;;;;;;5068119;28;20400;-70
2021/05/03 00:24:15;;;;;;;5.80;3.08;;;2.40;91.00;;;;;;4990144;28;20023;-69
2021/05/03 00:26:41;;;;;;;4.82;3.00;;;2.40;91.00;;;;;;5073983;28;20086;-69
2021/05/03 00:29:08;;;;;;;6.20;2.67;;;2.30;91.10;;;;;;5029119;28;20102;-70
2021/05/03 00:31:33;;;;;;;7.15;3.33;;;2.30;91.10;;;;;;5007441;28;20192;-70
2021/05/03 00:33:59;;;;;;;5.80;3.25;;;2.30;91.20;;;;;;4991782;28;20138;-70
2021/05/03 00:36:24;;;;;;;7.03;3.72;;;2.30;91.20;;;;;;5015969;28;20488;-70
2021/05/03 00:38:50;;;;;;;6.47;4.00;;;2.20;91.30;;;;;;5048581;28;20035;-70
2021/05/03 00:41:16;;;;;;;4.65;2.97;;;2.20;91.40;;;;;;5047002;28;20024;-70
2021/05/03 00:43:41;;;;;;;8.95;3.70;;;2.30;91.50;;;;;;5011788;28;20029;-70
2021/05/03 00:46:07;;;;;;;5.53;3.33;;;2.30;91.50;;;;;;4992273;28;20026;-70
2021/05/03 00:48:33;;;;;;;5.07;3.50;;;2.30;91.40;;;;;;5015033;28;20469;-70
2021/05/03 00:50:59;;;;;;;5.25;3.55;;;2.30;91.50;;;;;;5010454;28;20388;-70
2021/05/03 00:53:25;;;;;;;6.65;3.80;;;2.30;91.50;;;;;;5017114;28;20082;-70
2021/05/03 00:55:50;;;;;;;5.10;3.55;;;2.30;91.50;;;;;;5011022;28;20035;-70
2021/05/03 00:58:16;;;;;;;8.85;4.70;;;2.30;91.60;;;;;;5055560;28;20022;-70
2021/05/03 01:00:41;;;;;;;9.20;4.85;;;2.40;91.70;;;;;;5004502;28;20030;-70
2021/05/03 01:03:07;;;;;;;8.43;5.00;;;2.40;91.70;;;;;;5007094;28;20117;-70
2021/05/03 01:05:34;;;;;;;7.95;4.57;;;2.50;91.70;;;;;;5023201;28;20032;-71
2021/05/03 01:08:00;;;;;;;8.88;4.95;;;2.60;91.70;;;;;;4980649;28;20026;-70
2021/05/03 01:10:27;;;;;;;8.40;5.35;;;2.60;91.80;;;;;;5014560;28;20035;-70
2021/05/03 01:12:53;;;;;;;9.68;5.32;;;2.70;91.80;;;;;;4997656;28;20023;-70
2021/05/03 01:15:25;;;;;;;8.50;4.82;;;2.80;91.80;;;;;;4997302;28;20506;-70
2021/05/03 01:18:03;;;;;;;7.40;5.18;;;2.80;91.70;;;;;;5016139;28;20024;-69
2021/05/03 01:20:36;;;;;;;10.38;5.05;;;2.80;91.70;;;;;;5047338;28;20034;-70
2021/05/03 01:23:05;;;;;;;13.57;5.30;;;2.70;91.70;;;;;;4987578;28;20043;-70
2021/05/03 01:25:34;;;;;;;9.55;5.32;;;2.70;91.70;;;;;;5022466;28;20013;-70
2021/05/03 01:28:02;;;;;;;9.90;4.78;;;2.70;91.80;;;;;;5000980;28;20031;-70
2021/05/03 01:30:29;;;;;;;10.25;4.90;;;2.60;91.80;;;;;;5011992;28;20153;-70
2021/05/03 01:32:54;;;;;;;9.10;5.15;;;2.60;91.90;;;;;;4999929;28;20024;-70
2021/05/03 01:35:20;;;;;;;9.18;4.93;;;2.50;91.90;;;;;;4990311;28;20030;-69
2021/05/03 01:37:51;;;;;;;8.57;5.55;;;2.50;91.90;;;;;;5065754;28;20079;-69
2021/05/03 01:40:16;;;;;;;6.78;4.00;;;2.40;91.90;;;;;;4997495;28;20023;-70
2021/05/03 01:42:42;;;;;;;11.20;5.93;;;2.40;92.00;;;;;;5028376;28;20027;-70
2021/05/03 01:45:08;;;;;;;11.13;5.93;;;2.40;91.90;;;;;;4991279;28;20543;-70
2021/05/03 01:47:34;;;;;;;9.15;5.50;;;2.40;92.30;;;;;;5036265;28;20114;-70
2021/05/03 01:50:00;;;;;;;9.68;5.35;;;2.40;92.20;;;;;;4992132;28;20034;-70
2021/05/03 01:52:26;;;;;;;8.40;5.00;;;2.50;92.30;;;;;;5001430;28;20045;-70
2021/05/03 01:54:52;;;;;;;11.25;5.75;;;2.40;92.20;;;;;;5008304;28;20093;-70
2021/05/03 01:57:18;;;;;;;9.75;5.22;;;2.40;92.20;;;;;;5088117;28;20385;-70
2021/05/03 01:59:47;;;;;;;10.55;5.28;;;2.40;92.20;;;;;;5032694;28;20074;-70
2021/05/03 02:02:13;;;;;;;10.63;6.10;;;2.40;92.20;;;;;;4988598;28;20027;-70
2021/05/03 02:04:38;;;;;;;10.18;5.57;;;2.40;92.20;;;;;;4991169;28;20481;-70
2021/05/03 02:07:04;;;;;;;8.60;5.85;;;2.30;92.30;;;;;;5042312;28;20038;-70
2021/05/03 02:09:29;;;;;;;9.82;6.40;;;2.30;92.30;;;;;;4990958;28;20037;-70
2021/05/03 02:11:55;;;;;;;9.50;5.90;;;2.30;92.40;;;;;;4990930;28;20484;-70
2021/05/03 02:14:20;;;;;;;10.70;6.32;;;2.30;92.40;;;;;;4990540;28;20038;-70
2021/05/03 02:16:46;;;;;;;13.02;6.70;;;2.30;92.50;;;;;;4992071;28;20069;-70
2021/05/03 02:19:11;;;;;;;10.82;6.15;;;2.30;92.50;;;;;;5025852;28;20032;-70
2021/05/03 02:21:37;;;;;;;12.02;6.68;;;2.30;92.60;;;;;;5018581;28;20046;-70
2021/05/03 02:24:03;;;;;;;12.73;6.20;;;2.30;92.60;;;;;;4989538;28;20034;-70
2021/05/03 02:26:29;;;;;;;10.93;6.47;;;2.30;92.60;;;;;;4999560;28;20477;-70
2021/05/03 02:28:55;;;;;;;8.40;5.38;;;2.30;92.60;;;;;;4972499;28;20080;-70
2021/05/03 02:31:20;;;;;;;9.30;5.70;;;2.30;92.60;;;;;;4972783;28;20042;-70
2021/05/03 02:33:46;;;;;;;12.15;6.95;;;2.30;92.70;;;;;;4982306;28;20034;-70
2021/05/03 02:36:11;;;;;;;10.50;6.47;;;2.30;92.70;;;;;;4996456;28;20511;-70
2021/05/03 02:38:37;;;;;;;11.60;5.97;;;2.30;92.70;;;;;;5025544;28;20034;-70
2021/05/03 02:41:03;;;;;;;11.75;6.93;;;2.30;92.70;;;;;;4985326;28;20035;-70
2021/05/03 02:43:28;;;;;;;17.15;8.10;;;2.30;92.70;;;;;;5016226;28;20020;-70
2021/05/03 02:45:54;;;;;;;11.55;6.35;;;2.30;92.80;;;;;;4978825;28;20029;-70
2021/05/03 02:48:20;;;;;;;10.98;6.70;;;2.30;92.80;;;;;;5040336;28;20062;-70
2021/05/03 02:50:46;;;;;;;13.02;7.15;;;2.30;92.80;;;;;;5032115;28;20499;-70
2021/05/03 02:53:11;;;;;;;11.13;6.65;;;2.30;92.90;;;;;;4998431;28;20031;-70
2021/05/03 02:55:37;;;;;;;11.38;7.00;;;2.30;92.90;;;;;;4976242;28;20035;-70
2021/05/03 02:58:03;;;;;;;12.07;6.45;;;2.20;92.90;;;;;;4988183;28;20036;-70
2021/05/03 03:00:31;;;;;;;10.43;6.35;;;2.20;92.90;;;;;;4982534;28;20113;-70
2021/05/03 03:02:57;;;;;;;13.35;6.47;;;2.20;92.90;;;;;;4997374;28;20499;-70
2021/05/03 03:05:23;;;;;;;11.45;6.75;;;2.20;92.90;;;;;;5063530;28;20103;-70
2021/05/03 03:07:50;;;;;;;10.63;6.03;;;2.20;92.90;;;;;;5021917;28;20606;-70
2021/05/03 03:10:17;;;;;;;11.88;6.72;;;2.20;92.90;;;;;;4987883;28;20101;-70
2021/05/03 03:12:42;;;;;;;11.40;6.50;;;2.20;92.90;;;;;;5003155;28;20072;-70
2021/05/03 03:15:10;;;;;;;11.32;6.30;;;2.20;92.90;;;;;;5019766;28;20042;-70
2021/05/03 03:17:36;;;;;;;9.05;6.03;;;2.20;92.90;;;;;;4988413;28;20071;-70
2021/05/03 03:20:04;;;;;;;11.00;6.32;;;2.20;92.90;;;;;;4994288;28;20055;-70
2021/05/03 03:22:30;;;;;;;14.77;6.40;;;2.30;92.90;;;;;;5009454;28;20087;-70
2021/05/03 03:24:55;;;;;;;13.05;6.75;;;2.30;92.90;;;;;;4985876;28;20019;-70
2021/05/03 03:27:21;;;;;;;11.18;7.13;;;2.20;92.80;;;;;;5005588;28;20382;-70
2021/05/03 03:29:46;;;;;;;12.13;6.72;;;2.30;92.90;;;;;;4992151;28;20561;-70
2021/05/03 03:32:12;;;;;;;10.18;6.13;;;2.30;92.90;;;;;;5017119;28;20479;-70
2021/05/03 03:34:37;;;;;;;11.45;6.75;;;2.30;92.90;;;;;;5002705;28;20028;-70
2021/05/03 03:37:03;;;;;;;11.18;7.13;;;2.20;92.90;;;;;;4990440;28;20109;-70
2021/05/03 03:39:28;;;;;;;11.45;6.35;;;2.30;92.90;;;;;;4998729;28;20034;-70
2021/05/03 03:41:54;;;;;;;14.32;7.82;;;2.30;92.90;;;;;;4996613;28;20031;-70
2021/05/03 03:44:20;;;;;;;11.15;6.97;;;2.20;92.90;;;;;;5063620;28;20197;-70
2021/05/03 03:46:45;;;;;;;12.05;7.07;;;2.20;93.00;;;;;;5064911;28;20028;-70
2021/05/03 03:49:11;;;;;;;17.40;9.05;;;2.30;93.10;;;;;;5032647;28;20028;-69
2021/05/03 03:51:36;;;;;;;12.80;8.82;;;2.30;93.10;;;;;;5010075;28;20487;-70
2021/05/03 03:54:02;;;;;;;12.57;7.97;;;2.40;93.10;;;;;;5030281;28;20039;-70
2021/05/03 03:56:28;;;;;;;18.50;8.07;;;2.40;93.10;;;;;;5043483;28;20036;-69
2021/05/03 03:58:54;;;;;;;13.23;8.43;;;2.40;93.10;;;;;;4986635;28;20038;-70
2021/05/03 04:01:21;;;;;;;12.73;8.57;;;2.40;93.10;;;;;;5033669;28;20027;-70
2021/05/03 04:03:47;;;;;;;15.88;9.63;;;2.50;93.10;;;;;;4982463;28;20031;-70
2021/05/03 04:08:55;;;;;;;15.98;9.70;;;2.60;93.20;;;;;;4996899;28;20030;-70
2021/05/03 04:27:23;;;;;;;13.75;9.50;;;2.90;93.00;;;;;;4988129;28;20088;-69
2021/05/03 04:29:49;;;;;;;15.38;9.38;;;2.90;92.90;;;;;;4985808;28;20737;-69
2021/05/03 04:32:14;;;;;;;14.05;8.70;;;3.00;93.00;;;;;;4986908;28;20061;-69
2021/05/03 04:34:40;;;;;;;14.02;9.25;;;3.00;93.00;;;;;;4978660;28;20416;-71
2021/05/03 04:37:06;;;;;;;15.82;9.40;;;3.00;92.90;;;;;;4985988;28;20523;-70
2021/05/03 04:39:32;;;;;;;16.60;9.90;;;3.10;92.90;;;;;;4990286;28;20540;-70
2021/05/03 04:41:57;;;;;;;15.88;9.77;;;3.10;93.00;;;;;;4981237;28;20034;-70
2021/05/03 04:44:23;;;;;;;13.82;8.70;;;3.10;92.90;;;;;;4982351;28;20041;-70
2021/05/03 04:46:48;;;;;;;17.30;10.45;;;3.20;93.00;;;;;;4987973;28;20024;-70
2021/05/03 04:49:14;;;;;;;14.43;8.70;;;3.20;93.00;;;;;;4981221;28;20029;-70
2021/05/03 04:51:39;;;;;;;18.10;9.95;;;3.30;93.00;;;;;;4978778;28;20034;-70
2021/05/03 04:54:05;;;;;;;14.63;9.05;;;3.40;93.00;;;;;;4994602;28;20026;-70
2021/05/03 04:56:30;;;;;;;16.33;8.35;;;3.40;93.00;;;;;;4984517;28;20553;-70
2021/05/03 04:58:56;;;;;;;16.88;9.10;;;3.50;92.90;;;;;;4981448;28;20030;-70
2021/05/03 05:01:21;;;;;;;13.10;8.48;;;3.60;92.90;;;;;;4987016;28;20027;-69
2021/05/03 05:03:47;;;;;;;14.43;8.05;;;3.70;92.90;;;;;;4997452;28;20585;-69
2021/05/03 05:06:13;;;;;;;17.35;8.98;;;3.70;92.80;;;;;;4986811;28;20030;-69
2021/05/03 05:08:38;;;;;;;11.90;7.97;;;3.70;92.70;;;;;;4984627;28;20151;-69
2021/05/03 05:11:04;;;;;;;13.77;8.90;;;3.80;92.70;;;;;;5038425;28;20053;-70
2021/05/03 05:13:29;;;;;;;14.13;8.48;;;3.80;92.60;;;;;;4981270;28;20031;-70
2021/05/03 05:15:55;;;;;;;12.18;8.43;;;3.80;92.60;;;;;;5050822;28;20040;-69
2021/05/03 05:18:21;;;;;;;13.40;8.00;;;3.80;92.50;;;;;;4985528;28;20026;-69
2021/05/03 05:20:46;;;;;;;14.88;9.27;;;3.90;92.60;;;;;;4990756;28;20022;-69
2021/05/03 05:23:12;;;;;;;15.27;8.98;;;3.90;92.60;;;;;;4989674;28;20041;-69
2021/05/03 05:25:37;;;;;;;13.82;7.90;;;3.90;92.60;;;;;;5001247;28;20035;-69
2021/05/03 05:28:03;;;;;;;12.82;8.30;;;3.90;92.60;;;;;;5020862;28;20034;-69
2021/05/03 05:30:29;;;;;;;12.23;8.35;;;4.00;92.60;;;;;;5003557;28;20109;-70
2021/05/03 05:32:54;;;;;;;12.90;8.15;;;4.10;92.60;;;;;;4991308;28;20022;-70
2021/05/03 05:35:20;;;;;;;14.48;8.30;;;4.20;92.60;;;;;;4991211;28;20606;-70
2021/05/03 05:37:45;;;;;;;13.55;8.88;;;4.30;92.50;;;;;;5009255;28;20038;-70
2021/05/03 05:40:11;;;;;;;12.88;7.72;;;4.40;92.40;;;;;;5010709;28;20054;-70
2021/05/03 05:42:37;;;;;;;14.57;8.43;;;4.60;92.40;;;;;;4992799;28;20403;-70
2021/05/03 05:45:03;;;;;;;13.20;7.82;;;4.70;92.30;;;;;;4984949;28;20035;-70
2021/05/03 05:47:29;;;;;;;11.63;7.75;;;4.90;92.10;;;;;;4991800;28;20054;-69
2021/05/03 05:49:54;;;;;;;13.05;8.25;;;5.00;91.90;;;;;;5000176;28;20115;-70
2021/05/03 05:52:20;;;;;;;13.32;8.23;;;5.10;91.80;;;;;;4974438;28;20039;-70
2021/05/03 05:54:46;;;;;;;12.98;7.72;;;5.20;91.70;;;;;;4980565;28;20035;-70
2021/05/03 05:57:12;;;;;;;11.85;7.70;;;5.30;91.60;;;;;;5003407;28;20038;-70
2021/05/03 05:59:37;;;;;;;11.02;7.90;;;5.30;91.40;;;;;;4989259;28;20030;-70
2021/05/03 06:02:03;;;;;;;16.50;8.98;;;5.40;91.40;;;;;;4984965;28;20033;-70
2021/05/03 06:04:28;;;;;;;11.05;6.97;;;5.50;91.30;;;;;;5009331;28;20051;-70
2021/05/03 06:06:54;;;;;;;11.95;7.45;;;5.50;91.20;;;;;;5001189;28;20061;-70
2021/05/03 06:09:19;;;;;;;11.68;7.53;;;5.60;91.00;;;;;;5015311;28;20078;-70
2021/05/03 06:11:45;;;;;;;13.55;6.95;;;5.60;90.90;;;;;;5094970;28;20024;-70
2021/05/03 06:14:10;;;;;;;12.20;7.43;;;5.70;90.80;;;;;;5029160;28;20442;-70
2021/05/03 06:16:36;;;;;;;10.25;6.55;;;5.80;90.70;;;;;;4990926;28;20034;-70
2021/05/03 06:19:02;;;;;;;16.40;7.57;;;5.90;90.60;;;;;;4989624;28;20102;-70
2021/05/03 06:21:27;;;;;;;13.95;6.72;;;6.00;90.50;;;;;;4990922;28;20383;-70
2021/05/03 06:23:53;;;;;;;10.20;6.90;;;6.10;90.30;;;;;;4991677;28;20018;-70
2021/05/03 06:26:18;;;;;;;16.13;8.82;;;6.20;90.10;;;;;;4991077;28;20504;-70
2021/05/03 06:28:44;;;;;;;11.45;5.97;;;6.40;90.10;;;;;;4988103;28;20392;-70
2021/05/03 06:31:10;;;;;;;11.93;6.15;;;6.50;89.70;;;;;;4989183;28;20034;-70
2021/05/03 06:33:35;;;;;;;9.35;5.57;;;6.70;89.30;;;;;;5019137;28;20032;-70
2021/05/03 06:36:02;;;;;;;8.52;5.80;;;6.80;88.40;;;;;;5009959;28;20034;-70
2021/05/03 06:38:30;;;;;;;8.38;5.35;;;6.90;87.70;;;;;;4986271;28;20027;-69
2021/05/03 06:40:56;;;;;;;8.20;5.63;;;7.10;87.30;;;;;;4991824;28;20073;-70
2021/05/03 06:43:21;;;;;;;9.68;4.75;;;7.10;86.20;;;;;;5027994;28;20020;-70
2021/05/03 06:45:47;;;;;;;10.02;5.05;;;7.20;85.00;;;;;;5094444;28;20382;-69
2021/05/03 06:48:13;;;;;;;6.55;4.30;;;7.20;84.80;;;;;;5084506;28;20020;-69
2021/05/03 06:50:43;;;;;;;8.85;4.32;;;7.30;84.40;;;;;;4987736;28;20122;-70
2021/05/03 06:53:09;;;;;;;8.10;4.63;;;7.40;84.10;;;;;;4994080;28;20034;-70
2021/05/03 06:55:34;;;;;;;7.75;4.32;;;7.50;83.60;;;;;;4994646;28;20027;-70
2021/05/03 06:58:00;;;;;;;11.43;4.10;;;7.60;83.00;;;;;;5025192;28;20031;-70
2021/05/03 07:00:26;;;;;;;6.18;3.45;;;7.80;82.30;;;;;;4984375;28;20019;-70
2021/05/03 07:02:52;;;;;;;12.55;4.03;;;7.90;81.50;;;;;;4993760;28;20026;-70
2021/05/03 07:05:18;;;;;;;5.68;3.47;;;8.00;80.40;;;;;;5021935;28;20020;-71
2021/05/03 07:07:44;;;;;;;6.22;3.55;;;8.10;79.80;;;;;;4991578;28;20234;-70
2021/05/03 07:10:11;;;;;;;7.43;3.75;;;8.30;79.20;;;;;;5042660;28;20110;-70
2021/05/03 07:12:47;;;;;;;6.57;4.10;;;8.50;78.00;;;;;;4998662;28;20391;-70
2021/05/03 07:15:14;;;;;;;9.10;4.95;;;8.70;76.60;;;;;;4995322;28;20109;-69
2021/05/03 07:17:40;;;;;;;7.00;3.92;;;8.90;76.00;;;;;;5003032;28;20106;-69
2021/05/03 07:20:08;;;;;;;9.85;5.90;;;9.10;75.60;;;;;;4987100;28;20030;-70
2021/05/03 07:22:34;;;;;;;11.25;6.78;;;9.20;74.30;;;;;;4989730;28;20054;-69
2021/05/03 07:25:03;;;;;;;11.88;7.35;;;9.30;73.60;;;;;;4996879;28;20483;-69
2021/05/03 07:27:28;;;;;;;12.23;8.25;;;9.30;72.30;;;;;;5009599;28;20510;-70
2021/05/03 07:29:54;;;;;;;12.77;7.75;;;9.40;72.50;;;;;;4997598;28;20030;-69
2021/05/03 07:32:20;;;;;;;12.88;9.07;;;9.50;72.80;;;;;;4989409;28;20365;-69
2021/05/03 07:34:45;;;;;;;15.10;10.75;;;9.60;71.60;;;;;;4998144;28;20041;-69
2021/05/03 07:37:11;;;;;;;13.25;9.35;;;9.80;71.60;;;;;;5008211;28;20042;-68
2021/05/03 07:39:36;;;;;;;15.57;10.52;;;9.80;71.50;;;;;;5057140;28;20336;-69
2021/05/03 07:42:02;;;;;;;14.13;10.95;;;9.90;71.00;;;;;;4977674;28;20088;-69
2021/05/03 07:44:29;;;;;;;16.58;11.10;;;9.90;70.50;;;;;;4977646;28;20030;-69
2021/05/03 07:46:54;;;;;;;15.02;10.63;;;9.90;70.70;;;;;;4991162;28;20026;-69
2021/05/03 07:49:20;;;;;;;15.55;11.05;;;9.90;71.20;;;;;;4990244;28;20031;-69
2021/05/03 07:51:46;;;;;;;14.55;10.77;;;10.10;71.20;;;;;;4990779;28;20391;-68
2021/05/03 07:54:15;;;;;;;18.38;11.68;;;10.20;70.00;;;;;;4985994;28;20037;-69
2021/05/03 07:56:40;;;;;;;15.00;10.50;;;10.20;69.50;;;;;;4971514;28;20485;-70
2021/05/03 07:59:06;;;;;;;17.25;11.60;;;10.20;70.00;;;;;;4989566;28;20030;-69
2021/05/03 08:01:31;;;;;;;15.98;11.30;;;10.30;70.10;;;;;;4991355;28;20095;-69
2021/05/03 08:03:57;;;;;;;16.80;10.82;;;10.40;69.60;;;;;;4989143;28;20018;-69
2021/05/03 08:06:22;;;;;;;16.77;11.80;;;10.40;69.40;;;;;;4990550;28;20034;-69
2021/05/03 08:08:48;;;;;;;17.20;10.85;;;10.50;68.40;;;;;;4990872;28;20033;-69
2021/05/03 08:11:15;;;;;;;16.20;10.45;;;10.50;68.10;;;;;;4990434;28;20040;-69
2021/05/03 08:13:43;;;;;;;13.93;9.77;;;10.60;68.40;;;;;;4995966;28;20023;-69
2021/05/03 08:16:12;;;;;;;14.48;10.57;;;10.60;68.20;;;;;;5011031;28;20400;-68
2021/05/03 08:18:39;;;;;;;15.05;10.45;;;10.70;67.90;;;;;;4989247;28;20026;-69
2021/05/03 08:21:05;;;;;;;16.38;10.80;;;10.90;67.50;;;;;;4984721;28;20080;-69
2021/05/03 08:23:30;;;;;;;16.38;11.43;;;11.00;67.50;;;;;;4990222;28;20434;-69
2021/05/03 08:25:56;;;;;;;17.20;11.10;;;11.10;67.90;;;;;;4988573;28;20054;-69
2021/05/03 08:28:23;;;;;;;16.20;10.82;;;11.20;66.50;;;;;;4989065;28;20018;-69
2021/05/03 08:30:49;;;;;;;13.30;10.60;;;11.30;66.10;;;;;;4992853;28;20029;-69
2021/05/03 08:33:16;;;;;;;18.20;10.88;;;11.30;66.10;;;;;;4992717;28;20065;-69
2021/05/03 08:35:42;;;;;;;15.80;11.30;;;11.40;65.20;;;;;;4983087;28;20450;-69
2021/05/03 08:38:08;;;;;;;12.93;9.57;;;11.50;65.90;;;;;;4992657;28;20035;-69
2021/05/03 08:40:34;;;;;;;16.10;10.55;;;11.60;65.40;;;;;;4993545;28;20113;-69
2021/05/03 08:43:02;;;;;;;14.88;10.82;;;11.80;64.40;;;;;;4992879;28;20438;-68
2021/05/03 08:45:29;;;;;;;13.63;10.20;;;11.90;63.90;;;;;;4992367;28;20050;-69
2021/05/03 08:48:05;;;;;;;12.77;9.93;;;11.90;63.40;;;;;;4993395;28;20026;-69
2021/05/03 08:51:06;;;;;;;13.98;10.45;;;11.90;62.90;;;;;;4994218;28;20031;-69
2021/05/03 08:53:36;;;;;;;13.63;10.63;;;11.90;62.60;;;;;;4993851;28;20043;-69
2021/05/03 08:56:02;;;;;;;13.07;9.35;;;12.00;63.10;;;;;;4983872;28;20034;-69
2021/05/03 08:58:28;;;;;;;12.65;8.57;;;12.10;63.20;;;;;;4993312;28;20033;-69
2021/05/03 09:00:55;;;;;;;12.95;9.57;;;12.20;63.00;;;;;;4992978;28;20027;-69
2021/05/03 09:03:22;;;;;;;12.90;9.20;;;12.30;61.80;;;;;;4988134;28;20076;-69
2021/05/03 09:05:47;;;;;;;14.50;9.57;;;12.30;61.60;;;;;;5052164;28;20474;-68
2021/05/03 09:08:24;;;;;;;14.55;10.20;;;12.40;62.00;;;;;;5096154;28;20024;-69
2021/05/03 09:10:50;;;;;;;15.50;10.50;;;12.50;62.10;;;;;;5112166;28;20500;-69
2021/05/03 09:13:17;;;;;;;12.60;9.18;;;12.60;60.80;;;;;;5011571;28;20033;-69
2021/05/03 09:15:44;;;;;;;15.00;10.02;;;12.50;60.70;;;;;;4984186;28;20023;-69
2021/05/03 09:18:11;;;;;;;12.13;9.32;;;12.60;60.70;;;;;;4990575;28;20552;-69
2021/05/03 09:20:37;;;;;;;16.13;10.48;;;12.60;61.70;;;;;;4991651;28;20033;-70
2021/05/03 09:28:02;;;;;;;13.25;10.20;;;13.00;60.40;;;;;;4992166;28;20038;-70
2021/05/03 09:30:57;;;;;;;12.90;10.50;;;13.10;60.60;;;;;;4988882;28;20121;-69
2021/05/03 09:33:28;;;;;;;14.98;9.20;;;13.10;59.70;;;;;;5042559;28;20040;-69
2021/05/03 09:35:56;;;;;;;11.88;9.32;;;13.20;59.70;;;;;;5011157;28;20031;-69
2021/05/03 09:38:41;;;;;;;11.63;9.70;;;13.30;59.00;;;;;;4998200;28;20027;-70
2021/05/03 09:41:14;;;;;;;10.98;8.88;;;13.40;59.10;;;;;;4998793;28;20037;-70
2021/05/03 09:44:06;;;;;;;17.42;8.77;;;13.40;58.40;;;;;;5005516;28;20027;-70
2021/05/03 09:46:47;;;;;;;10.65;8.60;;;13.40;57.30;;;;;;4986420;28;20045;-69
2021/05/03 09:49:17;;;;;;;10.88;8.00;;;13.40;57.90;;;;;;4986126;28;20126;-69
2021/05/03 09:51:53;;;;;;;11.18;8.88;;;13.60;57.40;;;;;;4989657;28;20567;-70
2021/05/03 09:54:27;;;;;;;9.55;8.32;;;13.80;56.80;;;;;;4989197;28;20092;-69
2021/05/03 09:57:06;;;;;;;11.70;8.27;;;13.80;55.90;;;;;;4991917;28;20025;-69
2021/05/03 09:59:36;;;;;;;10.93;8.85;;;13.90;55.20;;;;;;4991035;28;20054;-69
2021/05/03 10:02:28;;;;;;;10.50;6.88;;;14.00;55.50;;;;;;4992782;28;20105;-70
2021/05/03 10:05:09;;;;;;;11.20;8.68;;;14.10;55.20;;;;;;4992541;28;20053;-69
2021/05/03 10:07:38;;;;;;;9.88;8.55;;;14.10;54.50;;;;;;4984351;28;20030;-69
2021/05/03 10:10:18;;;;;;;11.98;8.70;;;14.10;54.40;;;;;;4991864;28;20030;-69
2021/05/03 10:12:45;;;;;;;11.43;8.93;;;14.10;54.50;;;;;;4990744;28;20023;-70
2021/05/03 10:15:12;;;;;;;10.55;8.68;;;14.20;54.40;;;;;;5006289;28;20491;-70
2021/05/03 10:17:39;;;;;;;11.43;8.10;;;14.20;54.30;;;;;;4991127;28;20046;-70
2021/05/03 10:20:07;;;;;;;11.85;8.77;;;14.20;54.30;;;;;;4991000;28;20544;-70
2021/05/03 10:22:33;;;;;;;10.23;8.00;;;14.40;54.00;;;;;;4990802;28;20077;-70
2021/05/03 10:25:03;;;;;;;12.00;8.27;;;14.50;54.00;;;;;;4988593;28;20054;-70
2021/05/03 10:27:31;;;;;;;10.45;8.35;;;14.50;52.80;;;;;;4984812;28;20030;-71
2021/05/03 10:30:18;;;;;;;10.23;7.65;;;14.50;52.50;;;;;;4989709;28;20058;-70
2021/05/03 10:33:04;;;;;;;11.43;7.55;;;14.60;52.70;;;;;;4972593;28;20031;-71
2021/05/03 10:35:32;;;;;;;10.13;7.40;;;14.70;51.50;;;;;;4985004;28;20023;-69
2021/05/03 10:37:58;;;;;;;9.88;7.38;;;14.70;52.00;;;;;;4991775;28;20472;-70
2021/05/03 10:40:24;;;;;;;12.65;6.95;;;14.80;52.00;;;;;;4991942;28;20101;-70
2021/05/03 10:43:05;;;;;;;11.80;7.57;;;15.00;51.30;;;;;;4996092;28;20447;-71
2021/05/03 10:45:44;;;;;;;9.70;7.57;;;15.00;50.90;;;;;;4992250;28;20022;-71
2021/05/03 10:48:28;;;;;;;8.75;7.43;;;14.80;50.40;;;;;;4994278;28;20034;-70
2021/05/03 10:50:54;;;;;;;10.57;7.35;;;14.80;50.50;;;;;;5002154;28;20031;-70
2021/05/03 10:53:21;;;;;;;10.45;7.18;;;14.70;50.70;;;;;;4983204;28;20083;-69
2021/05/03 10:55:51;;;;;;;10.15;7.50;;;14.80;50.80;;;;;;4991723;28;20026;-70
2021/05/03 10:58:17;;;;;;;11.73;6.93;;;14.80;49.40;;;;;;4989754;28;20029;-70
2021/05/03 11:01:00;;;;;;;9.23;6.97;;;14.70;49.50;;;;;;4991685;28;20022;-70
2021/05/03 11:03:57;;;;;;;11.57;6.90;;;14.80;50.10;;;;;;4991720;28;20027;-69
2021/05/03 11:06:46;;;;;;;9.00;6.35;;;15.00;49.80;;;;;;4996351;28;20429;-70
2021/05/03 11:09:30;;;;;;;9.45;7.07;;;15.10;49.10;;;;;;5094065;28;20028;-70
2021/05/03 11:12:22;;;;;;;8.05;6.25;;;15.00;48.30;;;;;;5094011;28;20492;-69
2021/05/03 11:15:19;;;;;;;8.50;6.50;;;15.00;47.90;;;;;;5033743;28;20024;-70
2021/05/03 11:18:25;;;;;;;8.57;6.32;;;15.00;48.20;;;;;;4974132;28;20027;-70
2021/05/03 11:21:01;;;;;;;10.55;6.57;;;15.00;48.20;;;;;;5003214;28;20016;-70
2021/05/03 11:23:33;;;;;;;8.25;7.32;;;15.00;48.00;;;;;;5089409;28;20049;-70
2021/05/03 11:25:59;;;;;;;9.85;7.03;;;15.00;47.80;;;;;;4992791;28;20034;-71
2021/05/03 11:28:38;;;;;;;9.15;7.07;;;14.80;47.10;;;;;;5004047;28;20490;-69
2021/05/03 11:31:15;;;;;;;10.15;6.70;;;14.70;47.00;;;;;;4990326;28;20037;-69
2021/05/03 11:33:44;;;;;;;8.23;5.47;;;14.80;48.10;;;;;;5038444;28;20024;-70
2021/05/03 11:36:20;;;;;;;8.48;6.18;;;15.00;48.30;;;;;;5012278;28;20045;-70
2021/05/03 11:46:37;;;;;;;9.82;7.22;;;15.40;47.40;;;;;;4991506;28;20139;-70
2021/05/03 11:49:09;;;;;;;7.80;6.90;;;15.30;47.00;;;;;;4986824;28;20044;-70
2021/05/03 11:51:45;;;;;;;9.95;7.40;;;15.20;47.10;;;;;;4990844;28;20037;-70
2021/05/03 11:54:28;;;;;;;9.23;6.95;;;15.20;47.50;;;;;;5091263;28;20508;-70
2021/05/03 11:56:56;;;;;;;9.25;6.93;;;15.30;47.30;;;;;;5087252;28;20017;-70
2021/05/03 11:59:22;;;;;;;9.50;7.28;;;15.30;47.10;;;;;;4990727;28;20369;-69
2021/05/03 12:02:07;;;;;;;8.57;6.75;;;15.30;46.90;;;;;;4989164;28;20149;-70
2021/05/03 12:04:52;;;;;;;7.78;6.20;;;15.30;46.60;;;;;;4999925;28;20109;-70
2021/05/03 12:07:32;;;;;;;9.20;6.22;;;15.10;45.90;;;;;;4991028;28;20026;-70
2021/05/03 12:10:12;;;;;;;9.40;6.50;;;15.20;46.40;;;;;;4988314;28;20105;-70
2021/05/03 12:12:57;;;;;;;8.35;5.80;;;15.30;46.30;;;;;;4990706;28;20135;-70
2021/05/03 12:15:28;;;;;;;8.20;5.78;;;15.40;45.80;;;;;;4987186;28;20391;-70
2021/05/03 12:18:01;;;;;;;6.10;5.47;;;15.40;45.80;;;;;;4990317;28;20063;-69
2021/05/03 12:20:29;;;;;;;7.07;5.10;;;15.60;45.50;;;;;;4987331;28;20675;-69
2021/05/03 12:23:02;;;;;;;8.07;5.93;;;15.50;45.20;;;;;;4979798;28;20038;-70
2021/05/03 12:25:41;;;;;;;7.78;5.60;;;15.50;44.80;;;;;;4989907;28;20046;-70
2021/05/03 12:28:14;;;;;;;7.88;5.25;;;15.50;45.20;;;;;;5017173;28;20031;-70
2021/05/03 12:30:41;;;;;;;6.35;5.32;;;15.70;45.30;;;;;;4984211;28;20038;-70
2021/05/03 12:33:13;;;;;;;7.18;5.25;;;15.70;44.00;;;;;;4988298;28;21606;-70
2021/05/03 12:35:39;;;;;;;7.05;5.10;;;15.60;44.00;;;;;;4985373;28;20123;-70
2021/05/03 12:38:26;;;;;;;7.13;5.20;;;15.60;44.60;;;;;;4980754;28;20042;-70
2021/05/03 12:41:06;;;;;;;7.97;4.53;;;15.70;45.20;;;;;;5007467;28;20032;-70
2021/05/03 12:43:40;;;;;;;7.90;4.57;;;15.60;44.50;;;;;;4988934;28;20068;-70
2021/05/03 12:46:27;;;;;;;6.43;5.38;;;15.60;44.10;;;;;;5001918;28;20484;-70
2021/05/03 12:48:58;;;;;;;6.63;4.93;;;15.70;43.50;;;;;;4984507;28;20548;-70
2021/05/03 12:51:43;;;;;;;6.90;5.78;;;15.60;43.40;;;;;;5002256;28;20022;-70
2021/05/03 12:57:38;;;;;;;6.35;4.43;;;15.80;43.70;;;;;;4991118;28;20370;-70
2021/05/03 13:05:11;;;;;;;6.68;4.88;;;16.30;42.80;;;;;;4988232;28;20455;-69
2021/05/03 13:07:57;;;;;;;6.35;4.60;;;16.40;42.20;;;;;;5026055;28;20034;-69
2021/05/03 13:30:01;;;;;;;7.07;4.00;;;16.10;41.10;;;;;;5011190;28;20095;-70
2021/05/03 13:32:30;;;;;;;7.13;4.88;;;16.00;40.80;;;;;;4992157;28;20476;-71
2021/05/03 13:34:58;;;;;;;6.07;3.83;;;15.90;40.70;;;;;;4989941;28;20030;-71
2021/05/03 13:37:24;;;;;;;5.53;3.50;;;15.90;41.60;;;;;;4998907;28;20148;-72
2021/05/03 13:39:50;;;;;;;6.40;5.22;;;15.90;41.50;;;;;;4991285;28;20149;-70
2021/05/03 13:42:17;;;;;;;5.95;4.18;;;16.00;41.30;;;;;;4988917;28;20030;-70
2021/05/03 13:44:44;;;;;;;7.03;4.22;;;16.10;41.30;;;;;;4994301;28;20107;-71
2021/05/03 13:47:10;;;;;;;8.10;4.93;;;16.00;40.10;;;;;;4990550;28;20498;-70
2021/05/03 13:49:36;;;;;;;5.63;3.95;;;16.00;40.60;;;;;;4991742;28;20030;-70
2021/05/03 13:52:04;;;;;;;7.50;4.68;;;16.00;40.70;;;;;;4988036;28;20396;-70
2021/05/03 13:54:30;;;;;;;5.93;4.32;;;16.00;40.20;;;;;;5008112;28;20031;-69